sensor_id;sensor_type;location;lat;lon;timestamp;P1;durP1;ratioP1;P2;durP2;ratioP2
50379;SDS011;37474;59.468;18.040;2023-04-25T00:00:22;11.43;;;6.53;;
50379;SDS011;37474;59.468;18.040;2023-04-25T00:02:52;10.93;;;7.03;;
50379;SDS011;37474;59.468;18.040;2023-04-25T00:05:22;7.90;;;5.90;;
50379;SDS011;37474;59.468;18.040;2023-04-25T00:07:53;10.53;;;6.13;;
50379;SDS011;37474;59.468;18.040;2023-04-25T00:10:23;7.93;;;4.97;;
50379;SDS011;37474;59.468;18.040;2023-04-25T00:12:51;9.02;;;6.10;;
50379;SDS011;37474;59.468;18.040;2023-04-25T00:15:19;9.10;;;6.03;;
50379;SDS011;37474;59.468;18.040;2023-04-25T00:17:47;8.40;;;5.17;;
50379;SDS011;37474;59.468;18.040;2023-04-25T00:20:15;7.53;;;5.37;;
50379;SDS011;37474;59.468;18.040;2023-04-25T00:22:44;6.70;;;4.73;;
50379;SDS011;37474;59.468;18.040;2023-04-25T00:25:11;8.70;;;4.73;;
50379;SDS011;37474;59.468;18.040;2023-04-25T00:27:41;7.17;;;5.00;;
50379;SDS011;37474;59.468;18.040;2023-04-25T00:30:09;9.77;;;4.55;;
50379;SDS011;37474;59.468;18.040;2023-04-25T00:32:38;7.30;;;4.53;;
50379;SDS011;37474;59.468;18.040;2023-04-25T00:35:07;7.80;;;4.67;;
50379;SDS011;37474;59.468;18.040;2023-04-25T00:37:35;7.73;;;4.87;;
50379;SDS011;37474;59.468;18.040;2023-04-25T00:40:04;10.23;;;5.10;;
50379;SDS011;37474;59.468;18.040;2023-04-25T00:42:35;7.53;;;5.20;;
50379;SDS011;37474;59.468;18.040;2023-04-25T00:45:06;6.53;;;4.60;;
50379;SDS011;37474;59.468;18.040;2023-04-25T00:47:36;8.10;;;5.10;;
50379;SDS011;37474;59.468;18.040;2023-04-25T00:50:05;8.67;;;5.80;;
50379;SDS011;37474;59.468;18.040;2023-04-25T00:52:34;9.93;;;5.80;;
50379;SDS011;37474;59.468;18.040;2023-04-25T00:55:03;11.37;;;6.07;;
50379;SDS011;37474;59.468;18.040;2023-04-25T00:57:31;9.90;;;6.23;;
50379;SDS011;37474;59.468;18.040;2023-04-25T01:00:00;8.50;;;5.80;;
50379;SDS011;37474;59.468;18.040;2023-04-25T01:02:30;6.07;;;4.87;;
50379;SDS011;37474;59.468;18.040;2023-04-25T01:04:59;10.30;;;5.60;;
50379;SDS011;37474;59.468;18.040;2023-04-25T01:07:27;10.70;;;5.73;;
50379;SDS011;37474;59.468;18.040;2023-04-25T01:09:55;8.13;;;5.40;;
50379;SDS011;37474;59.468;18.040;2023-04-25T01:12:24;7.83;;;5.53;;
50379;SDS011;37474;59.468;18.040;2023-04-25T01:14:55;9.07;;;5.87;;
50379;SDS011;37474;59.468;18.040;2023-04-25T01:17:23;8.20;;;5.20;;
50379;SDS011;37474;59.468;18.040;2023-04-25T01:19:52;6.80;;;5.10;;
50379;SDS011;37474;59.468;18.040;2023-04-25T01:22:22;8.43;;;5.35;;
50379;SDS011;37474;59.468;18.040;2023-04-25T01:24:50;10.25;;;6.22;;
50379;SDS011;37474;59.468;18.040;2023-04-25T01:27:19;10.33;;;6.17;;
50379;SDS011;37474;59.468;18.040;2023-04-25T01:29:49;9.90;;;6.28;;
50379;SDS011;37474;59.468;18.040;2023-04-25T01:32:17;12.53;;;6.43;;
50379;SDS011;37474;59.468;18.040;2023-04-25T01:34:46;11.03;;;7.00;;
50379;SDS011;37474;59.468;18.040;2023-04-25T01:37:14;11.80;;;7.17;;
50379;SDS011;37474;59.468;18.040;2023-04-25T01:39:47;14.07;;;7.60;;
50379;SDS011;37474;59.468;18.040;2023-04-25T01:42:16;11.67;;;7.40;;
50379;SDS011;37474;59.468;18.040;2023-04-25T01:44:44;10.53;;;7.43;;
50379;SDS011;37474;59.468;18.040;2023-04-25T01:47:12;11.43;;;6.80;;
50379;SDS011;37474;59.468;18.040;2023-04-25T01:49:40;12.47;;;7.47;;
50379;SDS011;37474;59.468;18.040;2023-04-25T01:52:08;13.83;;;7.50;;
50379;SDS011;37474;59.468;18.040;2023-04-25T01:54:37;15.30;;;7.90;;
50379;SDS011;37474;59.468;18.040;2023-04-25T01:57:11;9.63;;;7.00;;
50379;SDS011;37474;59.468;18.040;2023-04-25T01:59:41;10.97;;;6.83;;
50379;SDS011;37474;59.468;18.040;2023-04-25T02:02:10;9.48;;;6.47;;
50379;SDS011;37474;59.468;18.040;2023-04-25T02:04:38;12.00;;;6.47;;
50379;SDS011;37474;59.468;18.040;2023-04-25T02:07:07;10.17;;;5.87;;
50379;SDS011;37474;59.468;18.040;2023-04-25T02:09:35;7.60;;;5.77;;
50379;SDS011;37474;59.468;18.040;2023-04-25T02:12:03;9.63;;;6.10;;
50379;SDS011;37474;59.468;18.040;2023-04-25T02:14:33;8.47;;;6.00;;
50379;SDS011;37474;59.468;18.040;2023-04-25T02:17:00;7.67;;;4.93;;
50379;SDS011;37474;59.468;18.040;2023-04-25T02:19:29;7.57;;;5.40;;
50379;SDS011;37474;59.468;18.040;2023-04-25T02:21:57;7.53;;;4.90;;
50379;SDS011;37474;59.468;18.040;2023-04-25T02:24:25;10.73;;;4.80;;
50379;SDS011;37474;59.468;18.040;2023-04-25T02:26:54;8.20;;;5.30;;
50379;SDS011;37474;59.468;18.040;2023-04-25T02:29:22;7.13;;;4.73;;
50379;SDS011;37474;59.468;18.040;2023-04-25T02:31:52;6.00;;;4.07;;
50379;SDS011;37474;59.468;18.040;2023-04-25T02:34:20;5.00;;;3.78;;
50379;SDS011;37474;59.468;18.040;2023-04-25T02:36:48;5.93;;;4.07;;
50379;SDS011;37474;59.468;18.040;2023-04-25T02:39:17;5.50;;;3.90;;
50379;SDS011;37474;59.468;18.040;2023-04-25T02:41:45;8.07;;;3.70;;
50379;SDS011;37474;59.468;18.040;2023-04-25T02:44:15;6.35;;;3.72;;
50379;SDS011;37474;59.468;18.040;2023-04-25T02:46:43;4.67;;;3.27;;
50379;SDS011;37474;59.468;18.040;2023-04-25T02:49:13;4.53;;;2.77;;
50379;SDS011;37474;59.468;18.040;2023-04-25T02:51:41;5.37;;;3.00;;
50379;SDS011;37474;59.468;18.040;2023-04-25T02:54:09;4.67;;;3.37;;
50379;SDS011;37474;59.468;18.040;2023-04-25T02:56:37;3.57;;;2.73;;
50379;SDS011;37474;59.468;18.040;2023-04-25T02:59:05;3.23;;;2.70;;
50379;SDS011;37474;59.468;18.040;2023-04-25T03:01:33;3.63;;;2.43;;
50379;SDS011;37474;59.468;18.040;2023-04-25T03:04:03;3.53;;;2.42;;
50379;SDS011;37474;59.468;18.040;2023-04-25T03:06:32;4.13;;;2.63;;
50379;SDS011;37474;59.468;18.040;2023-04-25T03:09:00;3.20;;;2.53;;
50379;SDS011;37474;59.468;18.040;2023-04-25T03:11:30;2.57;;;2.20;;
50379;SDS011;37474;59.468;18.040;2023-04-25T03:14:00;3.17;;;2.40;;
50379;SDS011;37474;59.468;18.040;2023-04-25T03:16:28;3.03;;;2.17;;
50379;SDS011;37474;59.468;18.040;2023-04-25T03:18:57;3.30;;;2.50;;
50379;SDS011;37474;59.468;18.040;2023-04-25T03:21:27;2.57;;;2.17;;
50379;SDS011;37474;59.468;18.040;2023-04-25T03:23:57;3.33;;;1.98;;
50379;SDS011;37474;59.468;18.040;2023-04-25T03:26:25;2.47;;;1.85;;
50379;SDS011;37474;59.468;18.040;2023-04-25T03:28:53;2.73;;;2.00;;
50379;SDS011;37474;59.468;18.040;2023-04-25T03:31:21;2.00;;;1.70;;
50379;SDS011;37474;59.468;18.040;2023-04-25T03:33:49;1.60;;;1.30;;
50379;SDS011;37474;59.468;18.040;2023-04-25T03:36:18;3.93;;;2.07;;
50379;SDS011;37474;59.468;18.040;2023-04-25T03:38:46;1.97;;;1.50;;
50379;SDS011;37474;59.468;18.040;2023-04-25T03:41:16;1.80;;;1.40;;
50379;SDS011;37474;59.468;18.040;2023-04-25T03:43:44;1.70;;;1.40;;
50379;SDS011;37474;59.468;18.040;2023-04-25T03:46:12;3.83;;;1.87;;
50379;SDS011;37474;59.468;18.040;2023-04-25T03:48:40;2.10;;;1.37;;
50379;SDS011;37474;59.468;18.040;2023-04-25T03:51:08;1.53;;;1.40;;
50379;SDS011;37474;59.468;18.040;2023-04-25T03:53:37;1.80;;;1.40;;
50379;SDS011;37474;59.468;18.040;2023-04-25T03:56:05;1.50;;;1.13;;
50379;SDS011;37474;59.468;18.040;2023-04-25T03:58:38;3.13;;;1.30;;
50379;SDS011;37474;59.468;18.040;2023-04-25T04:01:06;1.30;;;1.08;;
50379;SDS011;37474;59.468;18.040;2023-04-25T04:03:34;1.47;;;1.00;;
50379;SDS011;37474;59.468;18.040;2023-04-25T04:06:04;1.90;;;1.20;;
50379;SDS011;37474;59.468;18.040;2023-04-25T04:08:33;1.10;;;1.00;;
50379;SDS011;37474;59.468;18.040;2023-04-25T04:11:01;1.37;;;0.97;;
50379;SDS011;37474;59.468;18.040;2023-04-25T04:13:29;1.60;;;1.00;;
50379;SDS011;37474;59.468;18.040;2023-04-25T04:15:59;4.80;;;1.17;;
50379;SDS011;37474;59.468;18.040;2023-04-25T04:18:27;1.50;;;1.20;;
50379;SDS011;37474;59.468;18.040;2023-04-25T04:20:55;4.07;;;1.40;;
50379;SDS011;37474;59.468;18.040;2023-04-25T04:23:24;3.00;;;1.30;;
50379;SDS011;37474;59.468;18.040;2023-04-25T04:25:53;1.83;;;1.37;;
50379;SDS011;37474;59.468;18.040;2023-04-25T04:28:22;2.27;;;1.17;;
50379;SDS011;37474;59.468;18.040;2023-04-25T04:30:51;1.40;;;1.20;;
50379;SDS011;37474;59.468;18.040;2023-04-25T04:33:21;2.30;;;1.40;;
50379;SDS011;37474;59.468;18.040;2023-04-25T04:35:50;1.73;;;1.38;;
50379;SDS011;37474;59.468;18.040;2023-04-25T04:38:18;4.30;;;1.63;;
50379;SDS011;37474;59.468;18.040;2023-04-25T04:40:47;1.97;;;1.50;;
50379;SDS011;37474;59.468;18.040;2023-04-25T04:43:16;1.93;;;1.47;;
50379;SDS011;37474;59.468;18.040;2023-04-25T04:45:45;4.90;;;1.33;;
50379;SDS011;37474;59.468;18.040;2023-04-25T04:48:13;3.77;;;1.83;;
50379;SDS011;37474;59.468;18.040;2023-04-25T04:50:43;2.20;;;1.63;;
50379;SDS011;37474;59.468;18.040;2023-04-25T04:55:40;2.00;;;1.50;;
50379;SDS011;37474;59.468;18.040;2023-04-25T04:58:09;4.50;;;1.90;;
50379;SDS011;37474;59.468;18.040;2023-04-25T05:00:37;3.80;;;2.10;;
50379;SDS011;37474;59.468;18.040;2023-04-25T05:03:05;5.73;;;2.10;;
50379;SDS011;37474;59.468;18.040;2023-04-25T05:05:33;3.20;;;1.97;;
50379;SDS011;37474;59.468;18.040;2023-04-25T05:08:03;2.77;;;2.00;;
50379;SDS011;37474;59.468;18.040;2023-04-25T05:10:31;2.55;;;2.20;;
50379;SDS011;37474;59.468;18.040;2023-04-25T05:12:59;3.03;;;2.50;;
50379;SDS011;37474;59.468;18.040;2023-04-25T05:15:27;3.63;;;2.57;;
50379;SDS011;37474;59.468;18.040;2023-04-25T05:17:56;5.10;;;2.47;;
50379;SDS011;37474;59.468;18.040;2023-04-25T05:20:24;3.97;;;2.37;;
50379;SDS011;37474;59.468;18.040;2023-04-25T05:22:52;9.57;;;3.20;;
50379;SDS011;37474;59.468;18.040;2023-04-25T05:25:21;8.50;;;2.80;;
50379;SDS011;37474;59.468;18.040;2023-04-25T05:27:49;6.87;;;3.20;;
50379;SDS011;37474;59.468;18.040;2023-04-25T05:30:18;5.63;;;2.80;;
50379;SDS011;37474;59.468;18.040;2023-04-25T05:32:47;6.73;;;3.50;;
50379;SDS011;37474;59.468;18.040;2023-04-25T05:35:15;6.47;;;3.37;;
50379;SDS011;37474;59.468;18.040;2023-04-25T05:37:43;8.23;;;3.73;;
50379;SDS011;37474;59.468;18.040;2023-04-25T05:40:11;6.73;;;3.53;;
50379;SDS011;37474;59.468;18.040;2023-04-25T05:42:41;6.40;;;3.60;;
50379;SDS011;37474;59.468;18.040;2023-04-25T05:45:09;6.93;;;3.33;;
50379;SDS011;37474;59.468;18.040;2023-04-25T05:47:37;6.97;;;3.70;;
50379;SDS011;37474;59.468;18.040;2023-04-25T05:50:05;7.27;;;3.80;;
50379;SDS011;37474;59.468;18.040;2023-04-25T05:52:35;6.57;;;3.63;;
50379;SDS011;37474;59.468;18.040;2023-04-25T05:55:03;5.17;;;3.40;;
50379;SDS011;37474;59.468;18.040;2023-04-25T05:57:32;6.77;;;3.80;;
50379;SDS011;37474;59.468;18.040;2023-04-25T06:00:01;5.67;;;3.30;;
50379;SDS011;37474;59.468;18.040;2023-04-25T06:02:35;7.80;;;3.60;;
50379;SDS011;37474;59.468;18.040;2023-04-25T06:05:03;5.87;;;3.33;;
50379;SDS011;37474;59.468;18.040;2023-04-25T06:07:32;6.57;;;3.57;;
50379;SDS011;37474;59.468;18.040;2023-04-25T06:10:00;8.00;;;3.90;;
50379;SDS011;37474;59.468;18.040;2023-04-25T06:12:30;7.45;;;3.42;;
50379;SDS011;37474;59.468;18.040;2023-04-25T06:14:58;5.90;;;3.63;;
50379;SDS011;37474;59.468;18.040;2023-04-25T06:17:27;6.63;;;3.77;;
50379;SDS011;37474;59.468;18.040;2023-04-25T06:19:58;6.43;;;3.23;;
50379;SDS011;37474;59.468;18.040;2023-04-25T06:22:26;4.40;;;3.03;;
50379;SDS011;37474;59.468;18.040;2023-04-25T06:24:54;7.57;;;3.20;;
50379;SDS011;37474;59.468;18.040;2023-04-25T06:27:25;6.60;;;3.63;;
50379;SDS011;37474;59.468;18.040;2023-04-25T06:29:53;4.20;;;3.17;;
50379;SDS011;37474;59.468;18.040;2023-04-25T06:32:21;6.30;;;3.03;;
50379;SDS011;37474;59.468;18.040;2023-04-25T06:34:51;4.10;;;2.80;;
50379;SDS011;37474;59.468;18.040;2023-04-25T06:37:21;6.47;;;2.90;;
50379;SDS011;37474;59.468;18.040;2023-04-25T06:39:49;5.10;;;3.30;;
50379;SDS011;37474;59.468;18.040;2023-04-25T06:42:17;4.83;;;2.83;;
50379;SDS011;37474;59.468;18.040;2023-04-25T06:44:45;5.03;;;2.80;;
50379;SDS011;37474;59.468;18.040;2023-04-25T06:47:13;4.37;;;2.87;;
50379;SDS011;37474;59.468;18.040;2023-04-25T06:49:42;4.43;;;2.90;;
50379;SDS011;37474;59.468;18.040;2023-04-25T06:52:12;7.23;;;3.00;;
50379;SDS011;37474;59.468;18.040;2023-04-25T06:54:40;6.03;;;2.97;;
50379;SDS011;37474;59.468;18.040;2023-04-25T06:57:08;7.07;;;3.20;;
50379;SDS011;37474;59.468;18.040;2023-04-25T06:59:36;6.87;;;3.47;;
50379;SDS011;37474;59.468;18.040;2023-04-25T07:02:04;4.20;;;2.27;;
50379;SDS011;37474;59.468;18.040;2023-04-25T07:04:32;5.30;;;3.00;;
50379;SDS011;37474;59.468;18.040;2023-04-25T07:07:01;4.50;;;2.73;;
50379;SDS011;37474;59.468;18.040;2023-04-25T07:09:31;3.87;;;2.30;;
50379;SDS011;37474;59.468;18.040;2023-04-25T07:12:00;9.95;;;2.88;;
50379;SDS011;37474;59.468;18.040;2023-04-25T07:14:28;5.23;;;2.63;;
50379;SDS011;37474;59.468;18.040;2023-04-25T07:16:56;4.03;;;2.63;;
50379;SDS011;37474;59.468;18.040;2023-04-25T07:19:25;5.70;;;2.57;;
50379;SDS011;37474;59.468;18.040;2023-04-25T07:21:53;4.00;;;2.37;;
50379;SDS011;37474;59.468;18.040;2023-04-25T07:24:21;4.10;;;2.40;;
50379;SDS011;37474;59.468;18.040;2023-04-25T07:26:50;4.03;;;2.13;;
50379;SDS011;37474;59.468;18.040;2023-04-25T07:29:18;4.07;;;2.40;;
50379;SDS011;37474;59.468;18.040;2023-04-25T07:31:46;3.97;;;2.17;;
50379;SDS011;37474;59.468;18.040;2023-04-25T07:34:14;4.40;;;2.40;;
50379;SDS011;37474;59.468;18.040;2023-04-25T07:36:43;3.83;;;2.57;;
50379;SDS011;37474;59.468;18.040;2023-04-25T07:39:11;4.00;;;2.47;;
50379;SDS011;37474;59.468;18.040;2023-04-25T07:41:39;5.53;;;2.70;;
50379;SDS011;37474;59.468;18.040;2023-04-25T07:44:09;5.83;;;3.50;;
50379;SDS011;37474;59.468;18.040;2023-04-25T07:46:38;4.87;;;2.70;;
50379;SDS011;37474;59.468;18.040;2023-04-25T07:49:06;4.40;;;2.43;;
50379;SDS011;37474;59.468;18.040;2023-04-25T07:51:34;4.13;;;3.20;;
50379;SDS011;37474;59.468;18.040;2023-04-25T07:54:02;4.70;;;2.70;;
50379;SDS011;37474;59.468;18.040;2023-04-25T07:56:31;3.70;;;2.33;;
50379;SDS011;37474;59.468;18.040;2023-04-25T07:59:19;4.97;;;2.57;;
50379;SDS011;37474;59.468;18.040;2023-04-25T08:01:48;4.25;;;2.63;;
50379;SDS011;37474;59.468;18.040;2023-04-25T08:04:16;3.83;;;2.43;;
50379;SDS011;37474;59.468;18.040;2023-04-25T08:06:45;3.30;;;2.57;;
50379;SDS011;37474;59.468;18.040;2023-04-25T08:09:14;3.77;;;2.70;;
50379;SDS011;37474;59.468;18.040;2023-04-25T08:11:43;3.03;;;2.23;;
50379;SDS011;37474;59.468;18.040;2023-04-25T08:14:11;3.33;;;2.40;;
50379;SDS011;37474;59.468;18.040;2023-04-25T08:16:40;5.20;;;2.90;;
50379;SDS011;37474;59.468;18.040;2023-04-25T08:19:09;3.25;;;2.38;;
50379;SDS011;37474;59.468;18.040;2023-04-25T08:21:37;3.60;;;2.30;;
50379;SDS011;37474;59.468;18.040;2023-04-25T08:24:06;4.77;;;2.80;;
50379;SDS011;37474;59.468;18.040;2023-04-25T08:26:34;4.80;;;2.50;;
50379;SDS011;37474;59.468;18.040;2023-04-25T08:29:03;4.07;;;2.90;;
50379;SDS011;37474;59.468;18.040;2023-04-25T08:31:32;5.43;;;2.83;;
50379;SDS011;37474;59.468;18.040;2023-04-25T08:34:02;6.53;;;2.70;;
50379;SDS011;37474;59.468;18.040;2023-04-25T08:36:30;3.15;;;2.63;;
50379;SDS011;37474;59.468;18.040;2023-04-25T08:39:05;3.57;;;2.63;;
50379;SDS011;37474;59.468;18.040;2023-04-25T08:41:33;4.20;;;2.73;;
50379;SDS011;37474;59.468;18.040;2023-04-25T08:46:33;3.97;;;2.37;;
50379;SDS011;37474;59.468;18.040;2023-04-25T08:49:02;4.47;;;2.83;;
50379;SDS011;37474;59.468;18.040;2023-04-25T08:51:32;5.00;;;3.38;;
50379;SDS011;37474;59.468;18.040;2023-04-25T08:54:06;6.23;;;3.70;;
50379;SDS011;37474;59.468;18.040;2023-04-25T08:56:57;4.47;;;3.10;;
50379;SDS011;37474;59.468;18.040;2023-04-25T08:59:28;4.00;;;2.87;;
50379;SDS011;37474;59.468;18.040;2023-04-25T09:01:57;4.90;;;2.80;;
50379;SDS011;37474;59.468;18.040;2023-04-25T09:04:27;4.87;;;3.37;;
50379;SDS011;37474;59.468;18.040;2023-04-25T09:06:55;4.85;;;3.08;;
50379;SDS011;37474;59.468;18.040;2023-04-25T09:09:26;5.30;;;2.53;;
50379;SDS011;37474;59.468;18.040;2023-04-25T09:11:54;4.37;;;2.90;;
50379;SDS011;37474;59.468;18.040;2023-04-25T09:14:23;3.40;;;2.80;;
50379;SDS011;37474;59.468;18.040;2023-04-25T09:16:59;4.43;;;3.10;;
50379;SDS011;37474;59.468;18.040;2023-04-25T09:19:31;4.47;;;3.40;;
50379;SDS011;37474;59.468;18.040;2023-04-25T09:22:07;8.77;;;4.20;;
50379;SDS011;37474;59.468;18.040;2023-04-25T09:24:36;4.77;;;3.03;;
50379;SDS011;37474;59.468;18.040;2023-04-25T09:27:06;5.15;;;3.10;;
50379;SDS011;37474;59.468;18.040;2023-04-25T09:29:35;4.77;;;3.40;;
50379;SDS011;37474;59.468;18.040;2023-04-25T09:34:50;5.13;;;2.80;;
50379;SDS011;37474;59.468;18.040;2023-04-25T09:37:19;4.40;;;3.00;;
50379;SDS011;37474;59.468;18.040;2023-04-25T09:39:49;5.07;;;3.38;;
50379;SDS011;37474;59.468;18.040;2023-04-25T09:42:21;5.00;;;3.15;;
50379;SDS011;37474;59.468;18.040;2023-04-25T09:44:51;3.90;;;3.10;;
50379;SDS011;37474;59.468;18.040;2023-04-25T09:47:20;6.45;;;3.60;;
50379;SDS011;37474;59.468;18.040;2023-04-25T09:49:51;6.50;;;3.92;;
50379;SDS011;37474;59.468;18.040;2023-04-25T09:52:21;6.20;;;3.90;;
50379;SDS011;37474;59.468;18.040;2023-04-25T09:54:52;6.53;;;4.20;;
50379;SDS011;37474;59.468;18.040;2023-04-25T09:57:21;8.10;;;4.63;;
50379;SDS011;37474;59.468;18.040;2023-04-25T09:59:51;8.82;;;4.60;;
50379;SDS011;37474;59.468;18.040;2023-04-25T10:02:21;6.22;;;4.60;;
50379;SDS011;37474;59.468;18.040;2023-04-25T10:04:52;6.65;;;4.57;;
50379;SDS011;37474;59.468;18.040;2023-04-25T10:07:24;6.27;;;4.27;;
50379;SDS011;37474;59.468;18.040;2023-04-25T10:09:55;6.67;;;4.10;;
50379;SDS011;37474;59.468;18.040;2023-04-25T10:12:28;6.23;;;4.23;;
50379;SDS011;37474;59.468;18.040;2023-04-25T10:14:57;10.20;;;4.73;;
50379;SDS011;37474;59.468;18.040;2023-04-25T10:17:26;6.57;;;4.00;;
50379;SDS011;37474;59.468;18.040;2023-04-25T10:19:57;8.03;;;4.70;;
50379;SDS011;37474;59.468;18.040;2023-04-25T10:22:29;6.53;;;4.30;;
50379;SDS011;37474;59.468;18.040;2023-04-25T10:25:00;8.53;;;4.80;;
50379;SDS011;37474;59.468;18.040;2023-04-25T10:27:30;6.57;;;4.50;;
50379;SDS011;37474;59.468;18.040;2023-04-25T10:30:02;7.10;;;4.97;;
50379;SDS011;37474;59.468;18.040;2023-04-25T10:32:32;7.50;;;5.37;;
50379;SDS011;37474;59.468;18.040;2023-04-25T10:35:12;6.73;;;4.97;;
50379;SDS011;37474;59.468;18.040;2023-04-25T10:37:57;5.97;;;4.50;;
50379;SDS011;37474;59.468;18.040;2023-04-25T10:40:30;6.50;;;4.87;;
50379;SDS011;37474;59.468;18.040;2023-04-25T10:48:28;7.57;;;5.00;;
50379;SDS011;37474;59.468;18.040;2023-04-25T10:53:56;7.57;;;4.70;;
50379;SDS011;37474;59.468;18.040;2023-04-25T10:56:27;7.53;;;4.43;;
50379;SDS011;37474;59.468;18.040;2023-04-25T10:59:03;7.43;;;5.07;;
50379;SDS011;37474;59.468;18.040;2023-04-25T11:01:36;6.93;;;4.80;;
50379;SDS011;37474;59.468;18.040;2023-04-25T11:04:06;8.17;;;4.80;;
50379;SDS011;37474;59.468;18.040;2023-04-25T11:07:02;6.77;;;4.77;;
50379;SDS011;37474;59.468;18.040;2023-04-25T11:09:35;9.47;;;5.77;;
50379;SDS011;37474;59.468;18.040;2023-04-25T11:12:07;9.73;;;5.00;;
50379;SDS011;37474;59.468;18.040;2023-04-25T11:14:39;7.33;;;5.50;;
50379;SDS011;37474;59.468;18.040;2023-04-25T11:17:08;7.20;;;5.03;;
50379;SDS011;37474;59.468;18.040;2023-04-25T11:19:37;7.00;;;5.38;;
50379;SDS011;37474;59.468;18.040;2023-04-25T11:22:07;7.83;;;5.50;;
50379;SDS011;37474;59.468;18.040;2023-04-25T11:24:35;8.85;;;5.28;;
50379;SDS011;37474;59.468;18.040;2023-04-25T11:27:04;7.37;;;4.80;;
50379;SDS011;37474;59.468;18.040;2023-04-25T11:29:33;7.30;;;5.13;;
50379;SDS011;37474;59.468;18.040;2023-04-25T11:32:02;6.67;;;4.27;;
50379;SDS011;37474;59.468;18.040;2023-04-25T11:34:31;7.43;;;4.70;;
50379;SDS011;37474;59.468;18.040;2023-04-25T11:37:00;6.30;;;4.80;;
50379;SDS011;37474;59.468;18.040;2023-04-25T11:39:31;7.35;;;5.07;;
50379;SDS011;37474;59.468;18.040;2023-04-25T11:41:59;6.47;;;4.75;;
50379;SDS011;37474;59.468;18.040;2023-04-25T11:44:33;7.07;;;5.30;;
50379;SDS011;37474;59.468;18.040;2023-04-25T11:47:01;6.57;;;4.97;;
50379;SDS011;37474;59.468;18.040;2023-04-25T11:49:30;7.30;;;5.40;;
50379;SDS011;37474;59.468;18.040;2023-04-25T11:51:58;7.73;;;5.90;;
50379;SDS011;37474;59.468;18.040;2023-04-25T11:54:26;6.57;;;5.43;;
50379;SDS011;37474;59.468;18.040;2023-04-25T11:56:56;7.97;;;5.33;;
50379;SDS011;37474;59.468;18.040;2023-04-25T11:59:25;8.55;;;6.10;;
50379;SDS011;37474;59.468;18.040;2023-04-25T12:01:54;9.57;;;6.30;;
50379;SDS011;37474;59.468;18.040;2023-04-25T12:04:24;9.90;;;6.25;;
50379;SDS011;37474;59.468;18.040;2023-04-25T12:06:53;9.10;;;6.37;;
50379;SDS011;37474;59.468;18.040;2023-04-25T12:09:27;8.43;;;6.80;;
50379;SDS011;37474;59.468;18.040;2023-04-25T12:11:58;10.50;;;6.78;;
50379;SDS011;37474;59.468;18.040;2023-04-25T12:14:30;9.63;;;7.00;;
50379;SDS011;37474;59.468;18.040;2023-04-25T12:17:00;8.35;;;6.75;;
50379;SDS011;37474;59.468;18.040;2023-04-25T12:19:31;7.70;;;6.60;;
50379;SDS011;37474;59.468;18.040;2023-04-25T12:22:01;10.13;;;7.00;;
50379;SDS011;37474;59.468;18.040;2023-04-25T12:24:32;9.02;;;7.65;;
50379;SDS011;37474;59.468;18.040;2023-04-25T12:27:06;9.33;;;7.47;;
50379;SDS011;37474;59.468;18.040;2023-04-25T12:29:35;10.43;;;7.37;;
50379;SDS011;37474;59.468;18.040;2023-04-25T12:32:15;10.13;;;7.30;;
50379;SDS011;37474;59.468;18.040;2023-04-25T12:34:43;9.33;;;7.10;;
50379;SDS011;37474;59.468;18.040;2023-04-25T12:37:12;10.13;;;6.50;;
50379;SDS011;37474;59.468;18.040;2023-04-25T12:39:40;8.63;;;6.73;;
50379;SDS011;37474;59.468;18.040;2023-04-25T12:42:10;10.57;;;6.87;;
50379;SDS011;37474;59.468;18.040;2023-04-25T12:44:39;9.27;;;6.30;;
50379;SDS011;37474;59.468;18.040;2023-04-25T12:47:08;10.47;;;7.07;;
50379;SDS011;37474;59.468;18.040;2023-04-25T12:49:36;9.53;;;6.77;;
50379;SDS011;37474;59.468;18.040;2023-04-25T12:52:04;8.40;;;6.57;;
50379;SDS011;37474;59.468;18.040;2023-04-25T12:54:32;9.67;;;6.43;;
50379;SDS011;37474;59.468;18.040;2023-04-25T12:57:01;9.73;;;6.47;;
50379;SDS011;37474;59.468;18.040;2023-04-25T12:59:31;8.67;;;6.93;;
50379;SDS011;37474;59.468;18.040;2023-04-25T13:01:59;10.07;;;6.77;;
50379;SDS011;37474;59.468;18.040;2023-04-25T13:04:28;8.37;;;6.80;;
50379;SDS011;37474;59.468;18.040;2023-04-25T13:06:56;9.20;;;7.10;;
50379;SDS011;37474;59.468;18.040;2023-04-25T13:09:24;10.73;;;7.03;;
50379;SDS011;37474;59.468;18.040;2023-04-25T13:11:52;9.97;;;7.17;;
50379;SDS011;37474;59.468;18.040;2023-04-25T13:14:24;9.27;;;6.80;;
50379;SDS011;37474;59.468;18.040;2023-04-25T13:16:54;10.17;;;7.17;;
50379;SDS011;37474;59.468;18.040;2023-04-25T13:19:22;11.05;;;7.35;;
50379;SDS011;37474;59.468;18.040;2023-04-25T13:21:50;10.43;;;7.47;;
50379;SDS011;37474;59.468;18.040;2023-04-25T13:24:18;11.23;;;7.17;;
50379;SDS011;37474;59.468;18.040;2023-04-25T13:26:49;12.97;;;7.00;;
50379;SDS011;37474;59.468;18.040;2023-04-25T13:29:18;12.33;;;7.20;;
50379;SDS011;37474;59.468;18.040;2023-04-25T13:31:46;10.70;;;7.40;;
50379;SDS011;37474;59.468;18.040;2023-04-25T13:34:15;8.47;;;6.80;;
50379;SDS011;37474;59.468;18.040;2023-04-25T13:36:43;12.37;;;7.27;;
50379;SDS011;37474;59.468;18.040;2023-04-25T13:39:12;9.53;;;7.13;;
50379;SDS011;37474;59.468;18.040;2023-04-25T13:41:41;10.37;;;7.10;;
50379;SDS011;37474;59.468;18.040;2023-04-25T13:44:09;11.23;;;7.10;;
50379;SDS011;37474;59.468;18.040;2023-04-25T13:46:37;9.07;;;6.40;;
50379;SDS011;37474;59.468;18.040;2023-04-25T13:49:12;12.07;;;6.40;;
50379;SDS011;37474;59.468;18.040;2023-04-25T13:51:43;11.53;;;6.90;;
50379;SDS011;37474;59.468;18.040;2023-04-25T13:54:11;8.57;;;6.82;;
50379;SDS011;37474;59.468;18.040;2023-04-25T13:56:40;13.00;;;7.63;;
50379;SDS011;37474;59.468;18.040;2023-04-25T13:59:09;11.13;;;7.27;;
50379;SDS011;37474;59.468;18.040;2023-04-25T14:01:38;11.50;;;7.40;;
50379;SDS011;37474;59.468;18.040;2023-04-25T14:04:06;10.83;;;7.80;;
50379;SDS011;37474;59.468;18.040;2023-04-25T14:06:34;12.07;;;7.73;;
50379;SDS011;37474;59.468;18.040;2023-04-25T14:09:04;10.80;;;7.67;;
50379;SDS011;37474;59.468;18.040;2023-04-25T14:14:01;11.47;;;7.57;;
50379;SDS011;37474;59.468;18.040;2023-04-25T14:16:29;12.03;;;7.53;;
50379;SDS011;37474;59.468;18.040;2023-04-25T14:18:58;12.93;;;8.53;;
50379;SDS011;37474;59.468;18.040;2023-04-25T14:21:26;11.73;;;7.97;;
50379;SDS011;37474;59.468;18.040;2023-04-25T14:23:55;12.80;;;7.50;;
50379;SDS011;37474;59.468;18.040;2023-04-25T14:26:24;12.10;;;7.33;;
50379;SDS011;37474;59.468;18.040;2023-04-25T14:28:52;10.88;;;6.85;;
50379;SDS011;37474;59.468;18.040;2023-04-25T14:31:21;8.97;;;6.93;;
50379;SDS011;37474;59.468;18.040;2023-04-25T14:33:49;15.10;;;7.00;;
50379;SDS011;37474;59.468;18.040;2023-04-25T14:36:18;10.20;;;6.40;;
50379;SDS011;37474;59.468;18.040;2023-04-25T14:38:46;11.27;;;6.63;;
50379;SDS011;37474;59.468;18.040;2023-04-25T14:41:16;10.77;;;7.30;;
50379;SDS011;37474;59.468;18.040;2023-04-25T14:43:45;12.27;;;8.40;;
50379;SDS011;37474;59.468;18.040;2023-04-25T14:46:14;13.52;;;8.50;;
50379;SDS011;37474;59.468;18.040;2023-04-25T14:48:42;14.37;;;8.53;;
50379;SDS011;37474;59.468;18.040;2023-04-25T14:51:10;16.83;;;9.63;;
50379;SDS011;37474;59.468;18.040;2023-04-25T14:53:39;13.90;;;9.53;;
50379;SDS011;37474;59.468;18.040;2023-04-25T14:56:07;15.90;;;9.70;;
50379;SDS011;37474;59.468;18.040;2023-04-25T14:58:36;15.27;;;9.43;;
50379;SDS011;37474;59.468;18.040;2023-04-25T15:01:06;14.10;;;10.00;;